Flight Track Log - Related Links

Times and Time Zones

All times are in EDT time to prevent confusion due to time zone crossing. See the ORK321 flight status page for this flight to view local times or setup timezone preferences in your user account.

Time Position Orientation Groundspeed Altitude Reporting Facility
EDT Latitude Longitude Course Direction KTS MPH feet Rate Location/Type
Fri 09:31:49 PM 50.7000 -120.5333 230° Southwest 130 150 3,000  Level Vancouver Center
Fri 09:32:49 PM 50.7167 -120.5833 298° West 130 150 4,200 1,150 Climbing Vancouver Center
Fri 09:33:49 PM 50.7167 -120.6333 270° West 120 138 5,300 1,050 Climbing Vancouver Center
Fri 09:34:49 PM 50.7167 -120.6833 270° West 120 138 6,300 1,000 Climbing Vancouver Center
Fri 09:35:49 PM 50.6833 -120.7167 212° Southwest 130 150 7,300 950 Climbing Vancouver Center
Fri 09:36:00 PM 50.5061 -120.8175 231° Southwest  Level Estimated
Fri 09:36:49 PM 50.6500 -120.7500 212° Southwest 140 161 8,200  Level Vancouver Center
Fri 09:37:00 PM 50.4780 -120.8706 230° Southwest  Level Estimated
Fri 09:37:49 PM 50.6000 -120.7500 180° South 140 161 9,200  Level Vancouver Center
Fri 09:38:49 PM 50.5667 -120.7833 212° Southwest 140 161 10,200 1,000 Climbing Vancouver Center
Fri 09:39:49 PM 50.5333 -120.8000 198° South 140 161 11,200 850 Climbing Vancouver Center
Fri 09:40:49 PM 50.5000 -120.8333 212° Southwest 140 161 11,900 400 Climbing Vancouver Center
Fri 09:41:49 PM 50.4500 -120.8667 203° Southwest 160 184 12,000 50 Climbing Vancouver Center
Fri 09:42:49 PM 50.4000 -120.8833 192° South 170 196 12,000 50 Level Vancouver Center
Fri 09:43:49 PM 50.3667 -120.9167 213° Southwest 180 207 12,100 50 Climbing Vancouver Center
Fri 09:44:49 PM 50.3333 -120.9667 224° Southwest 170 196 12,100 -50 Level Vancouver Center
Fri 09:45:49 PM 50.2833 -121.0333 220° Southwest 180 207 12,000 -50 Descending Vancouver Center
Fri 09:46:49 PM 50.2500 -121.0500 198° South 180 207 12,000  Level Vancouver Center
Fri 09:47:49 PM 50.2167 -121.1167 232° Southwest 180 207 12,000  Level Vancouver Center
Fri 09:48:49 PM 50.1833 -121.1667 224° Southwest 180 207 12,000  Level Vancouver Center
Fri 09:49:49 PM 50.1500 -121.2167 224° Southwest 180 207 12,000  Level Vancouver Center
Fri 09:50:49 PM 50.1000 -121.2667 213° Southwest 180 207 12,000 50 Level Vancouver Center
Fri 09:51:49 PM 50.0667 -121.3333 232° Southwest 180 207 12,100 100 Climbing Vancouver Center
Fri 09:52:49 PM 50.0333 -121.3833 224° Southwest 180 207 12,200  Climbing Vancouver Center
Fri 09:53:49 PM 50.0000 -121.4333 224° Southwest 180 207 12,100 -50 Descending Vancouver Center
Fri 09:54:49 PM 49.9667 -121.4833 224° Southwest 180 207 12,100 50 Level Vancouver Center
Fri 09:55:49 PM 49.9167 -121.5500 221° Southwest 180 207 12,200 50 Climbing Vancouver Center
Fri 09:56:49 PM 49.8833 -121.6000 224° Southwest 180 207 12,200  Level Vancouver Center
Fri 09:57:49 PM 49.8500 -121.6500 224° Southwest 180 207 12,200 -50 Level Vancouver Center
Fri 09:58:49 PM 49.8000 -121.7000 213° Southwest 190 219 12,100 -50 Descending Vancouver Center
Fri 09:59:49 PM 49.7667 -121.7500 224° Southwest 180 207 12,100  Level Vancouver Center
Fri 10:00:49 PM 49.7333 -121.8167 232° Southwest 180 207 12,100  Level Vancouver Center
Fri 10:01:49 PM 49.7000 -121.8667 224° Southwest 180 207 12,100  Level Vancouver Center
Fri 10:02:49 PM 49.6500 -121.9500 227° Southwest 180 207 12,100  Level Vancouver Center
Fri 10:03:49 PM 49.6167 -121.9667 198° South 180 207 12,100 -50 Level Vancouver Center
Fri 10:04:49 PM 49.6000 -122.0167 243° Southwest 180 207 12,000 -50 Descending Vancouver Center
Fri 10:05:49 PM 49.5667 -122.1000 238° Southwest 180 207 12,000 -100 Level Vancouver Center
Fri 10:06:49 PM 49.5167 -122.1500 213° Southwest 190 219 11,800 -450 Descending Vancouver Center
Fri 10:07:49 PM 49.4833 -122.2000 224° Southwest 190 219 11,100 -700 Descending Vancouver Center
Fri 10:08:49 PM 49.4500 -122.2667 232° Southwest 200 230 10,400 -500 Descending Vancouver Center
Fri 10:09:49 PM 49.4000 -122.3167 213° Southwest 190 219 10,100 -200 Descending Vancouver Center
Fri 10:10:49 PM 49.3667 -122.3667 224° Southwest 180 207 10,000 -50 Descending Vancouver Center
Fri 10:11:49 PM 49.3500 -122.4333 249° West 170 196 10,000  Level Vancouver Center
Fri 10:12:49 PM 49.3167 -122.5000 233° Southwest 160 184 10,000  Level Vancouver Center
Fri 10:13:49 PM 49.3000 -122.5500 243° Southwest 160 184 10,000  Level Vancouver Center
Fri 10:14:49 PM 49.2833 -122.6167 249° West 160 184 10,000  Level Vancouver Center
Fri 10:15:49 PM 49.2667 -122.6667 243° Southwest 160 184 10,000  Level Vancouver Center
Fri 10:16:49 PM 49.2500 -122.7500 253° West 160 184 10,000  Level Vancouver Center
Fri 10:17:49 PM 49.2333 -122.8000 243° Southwest 160 184 10,000  Level Vancouver Center
Fri 10:18:49 PM 49.2000 -122.8500 224° Southwest 160 184 10,000 -350 Level Vancouver Center
Fri 10:19:49 PM 49.1667 -122.9000 224° Southwest 170 196 9,300 -850 Descending Vancouver Center
Fri 10:20:49 PM 49.1333 -122.9500 224° Southwest 190 219 8,300 -1,000 Descending Vancouver Center
Fri 10:21:49 PM 49.0833 -123.0333 228° Southwest 200 230 7,300 -1,000 Descending Vancouver Center
Fri 10:22:49 PM 49.0667 -123.0833 243° Southwest 200 230 6,300 -1,100 Descending Vancouver Center
Fri 10:23:49 PM 49.0667 -123.1833 270° West 200 230 5,100 -1,000 Descending Vancouver Center
Fri 10:24:49 PM 49.0833 -123.2333 297° West 180 207 4,300 -500 Descending Vancouver Center
Fri 10:25:49 PM 49.0833 -123.3167 270° West 150 173 4,100 -300 Descending Vancouver Center
Fri 10:26:49 PM 49.1000 -123.3667 297° West 140 161 3,700 -500 Descending Vancouver Center
Fri 10:27:49 PM 49.1333 -123.3833 342° North 140 161 3,100 -650 Descending Vancouver Center
Fri 10:28:49 PM 49.1500 -123.3333 63° Northeast 140 161 2,400 -700 Descending Vancouver Center
Fri 10:29:49 PM 49.1667 -123.2833 63° Northeast 120 138 1,700 -850 Descending Vancouver Center
Fri 10:30:49 PM 49.1667 -123.2333 90° East 120 138 700 -1,000 Descending Vancouver Center

Login

Don't have an account? Register now (free) for customized features, flight alerts, and more!